sensor_id;sensor_type;location;lat;lon;timestamp;P1;durP1;ratioP1;P2;durP2;ratioP2
10509;SDS011;5303;53.266;10.410;2023-04-08T00:01:28;18.90;;;11.53;;
10509;SDS011;5303;53.266;10.410;2023-04-08T00:03:53;20.13;;;12.53;;
10509;SDS011;5303;53.266;10.410;2023-04-08T00:06:18;19.40;;;12.07;;
10509;SDS011;5303;53.266;10.410;2023-04-08T00:08:44;20.17;;;12.47;;
10509;SDS011;5303;53.266;10.410;2023-04-08T00:11:09;19.00;;;12.43;;
10509;SDS011;5303;53.266;10.410;2023-04-08T00:13:34;21.83;;;12.20;;
10509;SDS011;5303;53.266;10.410;2023-04-08T00:16:00;21.93;;;12.30;;
10509;SDS011;5303;53.266;10.410;2023-04-08T00:18:25;16.90;;;11.70;;
10509;SDS011;5303;53.266;10.410;2023-04-08T00:20:51;20.07;;;12.10;;
10509;SDS011;5303;53.266;10.410;2023-04-08T00:23:16;19.07;;;12.30;;
10509;SDS011;5303;53.266;10.410;2023-04-08T00:25:42;21.13;;;12.63;;
10509;SDS011;5303;53.266;10.410;2023-04-08T00:28:07;23.00;;;12.23;;
10509;SDS011;5303;53.266;10.410;2023-04-08T00:30:33;19.60;;;11.70;;
10509;SDS011;5303;53.266;10.410;2023-04-08T00:32:58;19.20;;;12.47;;
10509;SDS011;5303;53.266;10.410;2023-04-08T00:35:23;22.60;;;13.10;;
10509;SDS011;5303;53.266;10.410;2023-04-08T00:37:49;20.77;;;12.53;;
10509;SDS011;5303;53.266;10.410;2023-04-08T00:40:15;17.37;;;11.93;;
10509;SDS011;5303;53.266;10.410;2023-04-08T00:42:40;19.40;;;12.53;;
10509;SDS011;5303;53.266;10.410;2023-04-08T00:45:06;21.30;;;12.50;;
10509;SDS011;5303;53.266;10.410;2023-04-08T00:47:34;18.17;;;12.47;;
10509;SDS011;5303;53.266;10.410;2023-04-08T00:50:00;17.83;;;11.23;;
10509;SDS011;5303;53.266;10.410;2023-04-08T00:52:25;17.67;;;11.93;;
10509;SDS011;5303;53.266;10.410;2023-04-08T00:54:51;19.83;;;11.97;;
10509;SDS011;5303;53.266;10.410;2023-04-08T00:57:16;23.00;;;13.57;;
10509;SDS011;5303;53.266;10.410;2023-04-08T00:59:41;20.77;;;11.97;;
10509;SDS011;5303;53.266;10.410;2023-04-08T01:02:18;19.20;;;12.23;;
10509;SDS011;5303;53.266;10.410;2023-04-08T01:05:06;18.47;;;11.50;;
10509;SDS011;5303;53.266;10.410;2023-04-08T01:07:38;18.57;;;11.50;;
10509;SDS011;5303;53.266;10.410;2023-04-08T01:10:11;14.80;;;10.77;;
10509;SDS011;5303;53.266;10.410;2023-04-08T01:12:41;20.53;;;12.60;;
10509;SDS011;5303;53.266;10.410;2023-04-08T01:15:19;17.30;;;11.47;;
10509;SDS011;5303;53.266;10.410;2023-04-08T01:17:45;17.43;;;11.40;;
10509;SDS011;5303;53.266;10.410;2023-04-08T01:20:12;19.37;;;11.37;;
10509;SDS011;5303;53.266;10.410;2023-04-08T01:22:43;17.80;;;10.90;;
10509;SDS011;5303;53.266;10.410;2023-04-08T01:25:23;17.30;;;11.20;;
10509;SDS011;5303;53.266;10.410;2023-04-08T01:27:53;14.90;;;10.33;;
10509;SDS011;5303;53.266;10.410;2023-04-08T01:30:21;16.37;;;10.53;;
10509;SDS011;5303;53.266;10.410;2023-04-08T01:32:49;16.93;;;10.50;;
10509;SDS011;5303;53.266;10.410;2023-04-08T01:35:16;17.17;;;10.67;;
10509;SDS011;5303;53.266;10.410;2023-04-08T01:37:42;18.13;;;11.20;;
10509;SDS011;5303;53.266;10.410;2023-04-08T01:40:09;16.83;;;10.93;;
10509;SDS011;5303;53.266;10.410;2023-04-08T01:42:35;18.17;;;11.43;;
10509;SDS011;5303;53.266;10.410;2023-04-08T01:45:01;18.63;;;11.30;;
10509;SDS011;5303;53.266;10.410;2023-04-08T01:47:28;17.60;;;11.37;;
10509;SDS011;5303;53.266;10.410;2023-04-08T01:49:53;16.13;;;11.10;;
10509;SDS011;5303;53.266;10.410;2023-04-08T01:52:20;15.97;;;10.30;;
10509;SDS011;5303;53.266;10.410;2023-04-08T01:54:47;15.30;;;10.60;;
10509;SDS011;5303;53.266;10.410;2023-04-08T01:57:23;18.90;;;11.07;;
10509;SDS011;5303;53.266;10.410;2023-04-08T01:59:52;15.77;;;10.43;;
10509;SDS011;5303;53.266;10.410;2023-04-08T02:02:23;17.37;;;11.20;;
10509;SDS011;5303;53.266;10.410;2023-04-08T02:04:51;17.87;;;11.37;;
10509;SDS011;5303;53.266;10.410;2023-04-08T02:07:17;15.23;;;10.60;;
10509;SDS011;5303;53.266;10.410;2023-04-08T02:09:42;16.57;;;10.43;;
10509;SDS011;5303;53.266;10.410;2023-04-08T02:12:07;17.73;;;11.23;;
10509;SDS011;5303;53.266;10.410;2023-04-08T02:14:33;17.73;;;11.73;;
10509;SDS011;5303;53.266;10.410;2023-04-08T02:17:00;17.00;;;10.53;;
10509;SDS011;5303;53.266;10.410;2023-04-08T02:19:51;16.00;;;10.57;;
10509;SDS011;5303;53.266;10.410;2023-04-08T02:25:08;18.13;;;11.03;;
10509;SDS011;5303;53.266;10.410;2023-04-08T02:27:38;15.77;;;10.53;;
10509;SDS011;5303;53.266;10.410;2023-04-08T02:30:04;17.23;;;10.47;;
10509;SDS011;5303;53.266;10.410;2023-04-08T02:32:32;18.03;;;10.87;;
10509;SDS011;5303;53.266;10.410;2023-04-08T02:34:58;18.43;;;11.20;;
10509;SDS011;5303;53.266;10.410;2023-04-08T02:37:27;16.73;;;10.90;;
10509;SDS011;5303;53.266;10.410;2023-04-08T02:39:52;15.90;;;10.63;;
10509;SDS011;5303;53.266;10.410;2023-04-08T02:42:17;17.20;;;10.40;;
10509;SDS011;5303;53.266;10.410;2023-04-08T02:44:43;16.63;;;11.10;;
10509;SDS011;5303;53.266;10.410;2023-04-08T02:47:08;14.93;;;10.47;;
10509;SDS011;5303;53.266;10.410;2023-04-08T02:49:33;17.13;;;11.30;;
10509;SDS011;5303;53.266;10.410;2023-04-08T02:51:59;17.63;;;11.63;;
10509;SDS011;5303;53.266;10.410;2023-04-08T02:54:24;17.77;;;11.57;;
10509;SDS011;5303;53.266;10.410;2023-04-08T02:56:49;15.13;;;10.63;;
10509;SDS011;5303;53.266;10.410;2023-04-08T02:59:15;15.73;;;11.03;;
10509;SDS011;5303;53.266;10.410;2023-04-08T03:01:40;15.33;;;11.00;;
10509;SDS011;5303;53.266;10.410;2023-04-08T03:04:06;17.40;;;10.80;;
10509;SDS011;5303;53.266;10.410;2023-04-08T03:06:31;17.40;;;11.70;;
10509;SDS011;5303;53.266;10.410;2023-04-08T03:08:57;18.50;;;12.10;;
10509;SDS011;5303;53.266;10.410;2023-04-08T03:11:22;20.63;;;12.17;;
10509;SDS011;5303;53.266;10.410;2023-04-08T03:13:47;19.40;;;12.47;;
10509;SDS011;5303;53.266;10.410;2023-04-08T03:16:13;19.03;;;11.83;;
10509;SDS011;5303;53.266;10.410;2023-04-08T03:18:38;19.47;;;12.60;;
10509;SDS011;5303;53.266;10.410;2023-04-08T03:21:03;18.67;;;11.97;;
10509;SDS011;5303;53.266;10.410;2023-04-08T03:23:28;20.63;;;12.37;;
10509;SDS011;5303;53.266;10.410;2023-04-08T03:25:54;18.67;;;11.73;;
10509;SDS011;5303;53.266;10.410;2023-04-08T03:28:19;17.73;;;11.40;;
10509;SDS011;5303;53.266;10.410;2023-04-08T03:30:44;19.00;;;11.60;;
10509;SDS011;5303;53.266;10.410;2023-04-08T03:33:09;22.60;;;12.23;;
10509;SDS011;5303;53.266;10.410;2023-04-08T03:35:35;20.30;;;12.40;;
10509;SDS011;5303;53.266;10.410;2023-04-08T03:38:01;17.57;;;12.50;;
10509;SDS011;5303;53.266;10.410;2023-04-08T03:40:26;20.43;;;12.13;;
10509;SDS011;5303;53.266;10.410;2023-04-08T03:42:52;17.57;;;11.83;;
10509;SDS011;5303;53.266;10.410;2023-04-08T03:45:18;20.57;;;11.97;;
10509;SDS011;5303;53.266;10.410;2023-04-08T03:47:44;19.70;;;11.73;;
10509;SDS011;5303;53.266;10.410;2023-04-08T03:50:09;18.53;;;11.63;;
10509;SDS011;5303;53.266;10.410;2023-04-08T03:52:35;25.23;;;12.70;;
10509;SDS011;5303;53.266;10.410;2023-04-08T03:55:00;20.53;;;12.13;;
10509;SDS011;5303;53.266;10.410;2023-04-08T03:57:25;18.90;;;12.83;;
10509;SDS011;5303;53.266;10.410;2023-04-08T03:59:51;21.20;;;12.27;;
10509;SDS011;5303;53.266;10.410;2023-04-08T04:02:16;22.43;;;13.00;;
10509;SDS011;5303;53.266;10.410;2023-04-08T04:04:41;22.47;;;14.13;;
10509;SDS011;5303;53.266;10.410;2023-04-08T04:07:06;22.73;;;12.30;;
10509;SDS011;5303;53.266;10.410;2023-04-08T04:09:32;19.97;;;12.33;;
10509;SDS011;5303;53.266;10.410;2023-04-08T04:11:57;19.77;;;12.57;;
10509;SDS011;5303;53.266;10.410;2023-04-08T04:14:22;19.67;;;12.80;;
10509;SDS011;5303;53.266;10.410;2023-04-08T04:16:47;18.87;;;12.37;;
10509;SDS011;5303;53.266;10.410;2023-04-08T04:19:13;17.63;;;12.53;;
10509;SDS011;5303;53.266;10.410;2023-04-08T04:21:38;19.20;;;12.53;;
10509;SDS011;5303;53.266;10.410;2023-04-08T04:24:03;19.13;;;12.33;;
10509;SDS011;5303;53.266;10.410;2023-04-08T04:26:29;18.53;;;12.67;;
10509;SDS011;5303;53.266;10.410;2023-04-08T04:28:54;19.37;;;12.73;;
10509;SDS011;5303;53.266;10.410;2023-04-08T04:31:20;21.03;;;13.60;;
10509;SDS011;5303;53.266;10.410;2023-04-08T04:33:47;18.40;;;11.50;;
10509;SDS011;5303;53.266;10.410;2023-04-08T04:36:13;21.37;;;12.97;;
10509;SDS011;5303;53.266;10.410;2023-04-08T04:38:39;19.17;;;12.47;;
10509;SDS011;5303;53.266;10.410;2023-04-08T04:41:05;20.30;;;13.37;;
10509;SDS011;5303;53.266;10.410;2023-04-08T04:43:30;19.07;;;12.10;;
10509;SDS011;5303;53.266;10.410;2023-04-08T04:45:55;16.97;;;11.50;;
10509;SDS011;5303;53.266;10.410;2023-04-08T04:48:21;19.20;;;12.83;;
10509;SDS011;5303;53.266;10.410;2023-04-08T04:50:57;23.67;;;12.90;;
10509;SDS011;5303;53.266;10.410;2023-04-08T04:53:23;18.53;;;11.87;;
10509;SDS011;5303;53.266;10.410;2023-04-08T04:55:49;18.87;;;12.13;;
10509;SDS011;5303;53.266;10.410;2023-04-08T04:58:15;20.17;;;13.17;;
10509;SDS011;5303;53.266;10.410;2023-04-08T05:00:41;20.27;;;13.80;;
10509;SDS011;5303;53.266;10.410;2023-04-08T05:03:06;19.30;;;12.73;;
10509;SDS011;5303;53.266;10.410;2023-04-08T05:05:31;20.53;;;13.40;;
10509;SDS011;5303;53.266;10.410;2023-04-08T05:07:57;22.43;;;13.60;;
10509;SDS011;5303;53.266;10.410;2023-04-08T05:10:22;23.13;;;14.30;;
10509;SDS011;5303;53.266;10.410;2023-04-08T05:12:47;23.17;;;14.77;;
10509;SDS011;5303;53.266;10.410;2023-04-08T05:15:12;20.50;;;14.03;;
10509;SDS011;5303;53.266;10.410;2023-04-08T05:17:38;22.63;;;14.20;;
10509;SDS011;5303;53.266;10.410;2023-04-08T05:20:03;22.07;;;14.40;;
10509;SDS011;5303;53.266;10.410;2023-04-08T05:22:29;21.00;;;14.27;;
10509;SDS011;5303;53.266;10.410;2023-04-08T05:24:54;23.40;;;14.43;;
10509;SDS011;5303;53.266;10.410;2023-04-08T05:27:20;24.97;;;15.10;;
10509;SDS011;5303;53.266;10.410;2023-04-08T05:29:45;25.23;;;14.43;;
10509;SDS011;5303;53.266;10.410;2023-04-08T05:32:11;23.53;;;15.43;;
10509;SDS011;5303;53.266;10.410;2023-04-08T05:34:36;21.97;;;15.33;;
10509;SDS011;5303;53.266;10.410;2023-04-08T05:37:01;26.60;;;16.40;;
10509;SDS011;5303;53.266;10.410;2023-04-08T05:39:26;20.73;;;14.03;;
10509;SDS011;5303;53.266;10.410;2023-04-08T05:41:52;24.90;;;15.27;;
10509;SDS011;5303;53.266;10.410;2023-04-08T05:44:18;21.00;;;14.50;;
10509;SDS011;5303;53.266;10.410;2023-04-08T05:46:44;20.53;;;14.27;;
10509;SDS011;5303;53.266;10.410;2023-04-08T05:49:09;23.80;;;14.30;;
10509;SDS011;5303;53.266;10.410;2023-04-08T05:51:36;20.93;;;14.27;;
10509;SDS011;5303;53.266;10.410;2023-04-08T05:54:01;24.03;;;16.10;;
10509;SDS011;5303;53.266;10.410;2023-04-08T05:56:26;22.07;;;14.17;;
10509;SDS011;5303;53.266;10.410;2023-04-08T05:58:51;22.67;;;14.43;;
10509;SDS011;5303;53.266;10.410;2023-04-08T06:01:17;26.53;;;14.33;;
10509;SDS011;5303;53.266;10.410;2023-04-08T06:03:42;23.43;;;14.27;;
10509;SDS011;5303;53.266;10.410;2023-04-08T06:06:10;25.33;;;14.50;;
10509;SDS011;5303;53.266;10.410;2023-04-08T06:08:36;24.87;;;14.60;;
10509;SDS011;5303;53.266;10.410;2023-04-08T06:11:01;25.73;;;14.63;;
10509;SDS011;5303;53.266;10.410;2023-04-08T06:13:29;25.00;;;15.13;;
10509;SDS011;5303;53.266;10.410;2023-04-08T06:15:54;23.07;;;14.70;;
10509;SDS011;5303;53.266;10.410;2023-04-08T06:18:19;26.23;;;16.00;;
10509;SDS011;5303;53.266;10.410;2023-04-08T06:20:45;23.70;;;14.50;;
10509;SDS011;5303;53.266;10.410;2023-04-08T06:23:10;24.23;;;15.57;;
10509;SDS011;5303;53.266;10.410;2023-04-08T06:25:36;27.27;;;14.27;;
10509;SDS011;5303;53.266;10.410;2023-04-08T06:28:01;26.67;;;14.57;;
10509;SDS011;5303;53.266;10.410;2023-04-08T06:30:27;21.30;;;14.30;;
10509;SDS011;5303;53.266;10.410;2023-04-08T06:32:52;23.77;;;15.57;;
10509;SDS011;5303;53.266;10.410;2023-04-08T06:35:17;22.40;;;14.73;;
10509;SDS011;5303;53.266;10.410;2023-04-08T06:37:43;29.47;;;16.43;;
10509;SDS011;5303;53.266;10.410;2023-04-08T06:40:08;28.33;;;16.83;;
10509;SDS011;5303;53.266;10.410;2023-04-08T06:42:34;25.87;;;16.83;;
10509;SDS011;5303;53.266;10.410;2023-04-08T06:44:59;31.77;;;16.83;;
10509;SDS011;5303;53.266;10.410;2023-04-08T06:47:25;29.27;;;17.00;;
10509;SDS011;5303;53.266;10.410;2023-04-08T06:49:50;25.27;;;15.47;;
10509;SDS011;5303;53.266;10.410;2023-04-08T06:52:15;24.23;;;14.70;;
10509;SDS011;5303;53.266;10.410;2023-04-08T06:54:41;24.43;;;15.57;;
10509;SDS011;5303;53.266;10.410;2023-04-08T06:57:06;24.53;;;14.17;;
10509;SDS011;5303;53.266;10.410;2023-04-08T06:59:31;27.60;;;15.07;;
10509;SDS011;5303;53.266;10.410;2023-04-08T07:01:56;19.63;;;13.67;;
10509;SDS011;5303;53.266;10.410;2023-04-08T07:04:22;19.80;;;13.20;;
10509;SDS011;5303;53.266;10.410;2023-04-08T07:06:47;21.97;;;12.97;;
10509;SDS011;5303;53.266;10.410;2023-04-08T07:09:12;25.47;;;13.97;;
10509;SDS011;5303;53.266;10.410;2023-04-08T07:11:37;19.40;;;12.83;;
10509;SDS011;5303;53.266;10.410;2023-04-08T07:14:03;20.30;;;12.43;;
10509;SDS011;5303;53.266;10.410;2023-04-08T07:16:28;20.37;;;13.50;;
10509;SDS011;5303;53.266;10.410;2023-04-08T07:18:53;21.70;;;12.50;;
10509;SDS011;5303;53.266;10.410;2023-04-08T07:21:19;20.10;;;12.90;;
10509;SDS011;5303;53.266;10.410;2023-04-08T07:23:44;20.70;;;13.53;;
10509;SDS011;5303;53.266;10.410;2023-04-08T07:26:09;20.73;;;12.63;;
10509;SDS011;5303;53.266;10.410;2023-04-08T07:28:35;21.60;;;12.70;;
10509;SDS011;5303;53.266;10.410;2023-04-08T07:31:10;22.60;;;12.80;;
10509;SDS011;5303;53.266;10.410;2023-04-08T07:33:37;23.13;;;12.37;;
10509;SDS011;5303;53.266;10.410;2023-04-08T07:36:03;21.50;;;12.93;;
10509;SDS011;5303;53.266;10.410;2023-04-08T07:38:28;20.13;;;12.80;;
10509;SDS011;5303;53.266;10.410;2023-04-08T07:40:53;22.23;;;13.23;;
10509;SDS011;5303;53.266;10.410;2023-04-08T07:43:19;20.97;;;12.87;;
10509;SDS011;5303;53.266;10.410;2023-04-08T07:45:44;22.97;;;13.93;;
10509;SDS011;5303;53.266;10.410;2023-04-08T07:48:09;26.70;;;14.60;;
10509;SDS011;5303;53.266;10.410;2023-04-08T07:50:35;25.03;;;14.47;;
10509;SDS011;5303;53.266;10.410;2023-04-08T07:53:01;27.20;;;15.17;;
10509;SDS011;5303;53.266;10.410;2023-04-08T07:55:27;22.30;;;14.57;;
10509;SDS011;5303;53.266;10.410;2023-04-08T07:57:53;23.40;;;14.43;;
10509;SDS011;5303;53.266;10.410;2023-04-08T08:00:18;25.00;;;15.37;;
10509;SDS011;5303;53.266;10.410;2023-04-08T08:02:45;23.10;;;14.50;;
10509;SDS011;5303;53.266;10.410;2023-04-08T08:05:12;24.20;;;14.23;;
10509;SDS011;5303;53.266;10.410;2023-04-08T08:07:37;21.93;;;14.60;;
10509;SDS011;5303;53.266;10.410;2023-04-08T08:10:02;23.77;;;14.67;;
10509;SDS011;5303;53.266;10.410;2023-04-08T08:12:28;28.20;;;14.47;;
10509;SDS011;5303;53.266;10.410;2023-04-08T08:14:53;24.03;;;13.80;;
10509;SDS011;5303;53.266;10.410;2023-04-08T08:17:22;27.23;;;13.93;;
10509;SDS011;5303;53.266;10.410;2023-04-08T08:19:48;25.07;;;14.83;;
10509;SDS011;5303;53.266;10.410;2023-04-08T08:22:14;25.77;;;14.87;;
10509;SDS011;5303;53.266;10.410;2023-04-08T08:24:39;23.60;;;15.13;;
10509;SDS011;5303;53.266;10.410;2023-04-08T08:27:04;25.40;;;14.43;;
10509;SDS011;5303;53.266;10.410;2023-04-08T08:29:30;24.63;;;14.47;;
10509;SDS011;5303;53.266;10.410;2023-04-08T08:31:55;21.00;;;13.83;;
10509;SDS011;5303;53.266;10.410;2023-04-08T08:34:21;23.90;;;13.80;;
10509;SDS011;5303;53.266;10.410;2023-04-08T08:36:47;20.53;;;14.23;;
10509;SDS011;5303;53.266;10.410;2023-04-08T08:39:12;21.13;;;13.90;;
10509;SDS011;5303;53.266;10.410;2023-04-08T08:41:37;21.47;;;12.60;;
10509;SDS011;5303;53.266;10.410;2023-04-08T08:44:06;21.73;;;13.90;;
10509;SDS011;5303;53.266;10.410;2023-04-08T08:46:33;24.47;;;13.97;;
10509;SDS011;5303;53.266;10.410;2023-04-08T08:48:59;21.40;;;13.67;;
10509;SDS011;5303;53.266;10.410;2023-04-08T08:51:25;20.83;;;12.63;;
10509;SDS011;5303;53.266;10.410;2023-04-08T08:53:51;21.20;;;12.97;;
10509;SDS011;5303;53.266;10.410;2023-04-08T08:56:17;20.77;;;13.60;;
10509;SDS011;5303;53.266;10.410;2023-04-08T08:58:42;21.40;;;13.63;;
10509;SDS011;5303;53.266;10.410;2023-04-08T09:01:28;21.80;;;12.73;;
10509;SDS011;5303;53.266;10.410;2023-04-08T09:04:05;23.13;;;12.53;;
10509;SDS011;5303;53.266;10.410;2023-04-08T09:06:35;18.67;;;12.53;;
10509;SDS011;5303;53.266;10.410;2023-04-08T09:09:01;20.37;;;12.77;;
10509;SDS011;5303;53.266;10.410;2023-04-08T09:11:29;19.90;;;12.73;;
10509;SDS011;5303;53.266;10.410;2023-04-08T09:13:55;19.73;;;13.30;;
10509;SDS011;5303;53.266;10.410;2023-04-08T09:16:21;25.37;;;14.53;;
10509;SDS011;5303;53.266;10.410;2023-04-08T09:18:47;22.43;;;13.83;;
10509;SDS011;5303;53.266;10.410;2023-04-08T09:21:14;21.47;;;12.90;;
10509;SDS011;5303;53.266;10.410;2023-04-08T09:23:44;23.13;;;13.27;;
10509;SDS011;5303;53.266;10.410;2023-04-08T09:28:42;21.10;;;13.67;;
10509;SDS011;5303;53.266;10.410;2023-04-08T09:31:18;25.37;;;13.80;;
10509;SDS011;5303;53.266;10.410;2023-04-08T09:33:48;25.87;;;14.87;;
10509;SDS011;5303;53.266;10.410;2023-04-08T09:36:15;24.67;;;14.83;;
10509;SDS011;5303;53.266;10.410;2023-04-08T09:38:41;24.77;;;14.60;;
10509;SDS011;5303;53.266;10.410;2023-04-08T09:41:07;23.77;;;13.93;;
10509;SDS011;5303;53.266;10.410;2023-04-08T09:43:34;24.70;;;14.67;;
10509;SDS011;5303;53.266;10.410;2023-04-08T09:46:05;23.83;;;14.40;;
10509;SDS011;5303;53.266;10.410;2023-04-08T09:48:38;25.03;;;15.07;;
10509;SDS011;5303;53.266;10.410;2023-04-08T09:51:05;24.87;;;15.27;;
10509;SDS011;5303;53.266;10.410;2023-04-08T09:53:40;24.67;;;14.80;;
10509;SDS011;5303;53.266;10.410;2023-04-08T09:56:10;24.33;;;13.87;;
10509;SDS011;5303;53.266;10.410;2023-04-08T09:58:38;26.87;;;17.97;;
10509;SDS011;5303;53.266;10.410;2023-04-08T10:01:06;23.23;;;14.73;;
10509;SDS011;5303;53.266;10.410;2023-04-08T10:03:39;21.90;;;14.47;;
10509;SDS011;5303;53.266;10.410;2023-04-08T10:06:08;22.83;;;13.83;;
10509;SDS011;5303;53.266;10.410;2023-04-08T10:08:35;22.67;;;13.57;;
10509;SDS011;5303;53.266;10.410;2023-04-08T10:11:01;17.90;;;12.87;;
10509;SDS011;5303;53.266;10.410;2023-04-08T10:13:28;25.53;;;14.30;;
10509;SDS011;5303;53.266;10.410;2023-04-08T10:16:16;21.47;;;12.93;;
10509;SDS011;5303;53.266;10.410;2023-04-08T10:18:51;22.20;;;13.53;;
10509;SDS011;5303;53.266;10.410;2023-04-08T10:24:08;19.97;;;12.60;;
10509;SDS011;5303;53.266;10.410;2023-04-08T10:26:35;21.85;;;15.75;;
10509;SDS011;5303;53.266;10.410;2023-04-08T10:31:46;22.00;;;12.73;;
10509;SDS011;5303;53.266;10.410;2023-04-08T10:34:18;24.10;;;14.20;;
10509;SDS011;5303;53.266;10.410;2023-04-08T10:36:45;23.60;;;14.00;;
10509;SDS011;5303;53.266;10.410;2023-04-08T10:39:12;20.07;;;12.00;;
10509;SDS011;5303;53.266;10.410;2023-04-08T10:41:41;22.90;;;14.00;;
10509;SDS011;5303;53.266;10.410;2023-04-08T10:44:20;21.97;;;13.70;;
10509;SDS011;5303;53.266;10.410;2023-04-08T10:46:47;22.33;;;13.87;;
10509;SDS011;5303;53.266;10.410;2023-04-08T10:49:14;25.93;;;14.90;;
10509;SDS011;5303;53.266;10.410;2023-04-08T10:51:39;22.37;;;14.23;;
10509;SDS011;5303;53.266;10.410;2023-04-08T10:54:06;22.60;;;13.53;;
10509;SDS011;5303;53.266;10.410;2023-04-08T10:56:48;24.90;;;14.43;;
10509;SDS011;5303;53.266;10.410;2023-04-08T10:59:17;18.43;;;12.83;;
10509;SDS011;5303;53.266;10.410;2023-04-08T11:01:52;21.77;;;13.80;;
10509;SDS011;5303;53.266;10.410;2023-04-08T11:04:17;22.63;;;13.60;;
10509;SDS011;5303;53.266;10.410;2023-04-08T11:06:44;22.37;;;14.03;;
10509;SDS011;5303;53.266;10.410;2023-04-08T11:09:11;24.73;;;15.30;;
10509;SDS011;5303;53.266;10.410;2023-04-08T11:11:42;22.60;;;13.73;;
10509;SDS011;5303;53.266;10.410;2023-04-08T11:14:09;23.67;;;14.80;;
10509;SDS011;5303;53.266;10.410;2023-04-08T11:16:36;25.00;;;13.37;;
10509;SDS011;5303;53.266;10.410;2023-04-08T11:19:04;22.20;;;13.43;;
10509;SDS011;5303;53.266;10.410;2023-04-08T11:21:31;23.27;;;14.43;;
10509;SDS011;5303;53.266;10.410;2023-04-08T11:23:59;23.63;;;14.50;;
10509;SDS011;5303;53.266;10.410;2023-04-08T11:26:24;23.37;;;14.47;;
10509;SDS011;5303;53.266;10.410;2023-04-08T11:28:51;25.57;;;15.10;;
10509;SDS011;5303;53.266;10.410;2023-04-08T11:31:17;24.63;;;14.83;;
10509;SDS011;5303;53.266;10.410;2023-04-08T11:33:43;24.97;;;14.97;;
10509;SDS011;5303;53.266;10.410;2023-04-08T11:36:10;27.27;;;15.40;;
10509;SDS011;5303;53.266;10.410;2023-04-08T11:38:38;25.73;;;14.83;;
10509;SDS011;5303;53.266;10.410;2023-04-08T11:41:04;30.07;;;16.63;;
10509;SDS011;5303;53.266;10.410;2023-04-08T11:43:30;28.17;;;16.37;;
10509;SDS011;5303;53.266;10.410;2023-04-08T11:45:55;25.40;;;15.90;;
10509;SDS011;5303;53.266;10.410;2023-04-08T11:48:20;27.27;;;16.00;;
10509;SDS011;5303;53.266;10.410;2023-04-08T11:50:46;28.33;;;15.43;;
10509;SDS011;5303;53.266;10.410;2023-04-08T11:53:21;25.53;;;15.87;;
10509;SDS011;5303;53.266;10.410;2023-04-08T11:55:49;24.97;;;15.77;;
10509;SDS011;5303;53.266;10.410;2023-04-08T11:58:15;29.20;;;16.30;;
10509;SDS011;5303;53.266;10.410;2023-04-08T12:00:40;27.83;;;16.50;;
10509;SDS011;5303;53.266;10.410;2023-04-08T12:03:07;26.23;;;14.30;;
10509;SDS011;5303;53.266;10.410;2023-04-08T12:05:33;27.97;;;15.00;;
10509;SDS011;5303;53.266;10.410;2023-04-08T12:07:58;27.23;;;15.53;;
10509;SDS011;5303;53.266;10.410;2023-04-08T12:10:24;27.47;;;15.70;;
10509;SDS011;5303;53.266;10.410;2023-04-08T12:12:49;25.13;;;15.37;;
10509;SDS011;5303;53.266;10.410;2023-04-08T12:15:15;23.73;;;15.17;;
10509;SDS011;5303;53.266;10.410;2023-04-08T12:17:40;27.63;;;15.63;;
10509;SDS011;5303;53.266;10.410;2023-04-08T12:20:06;26.70;;;18.17;;
10509;SDS011;5303;53.266;10.410;2023-04-08T12:22:31;22.80;;;15.17;;
10509;SDS011;5303;53.266;10.410;2023-04-08T12:24:57;21.90;;;14.23;;
10509;SDS011;5303;53.266;10.410;2023-04-08T12:27:22;24.43;;;14.60;;
10509;SDS011;5303;53.266;10.410;2023-04-08T12:29:47;26.07;;;14.87;;
10509;SDS011;5303;53.266;10.410;2023-04-08T12:32:13;24.13;;;14.43;;
10509;SDS011;5303;53.266;10.410;2023-04-08T12:34:39;29.53;;;18.60;;
10509;SDS011;5303;53.266;10.410;2023-04-08T12:37:05;25.77;;;15.17;;
10509;SDS011;5303;53.266;10.410;2023-04-08T12:39:30;27.53;;;16.40;;
10509;SDS011;5303;53.266;10.410;2023-04-08T12:41:55;24.47;;;15.23;;
10509;SDS011;5303;53.266;10.410;2023-04-08T12:44:21;26.17;;;15.20;;
10509;SDS011;5303;53.266;10.410;2023-04-08T12:46:46;25.70;;;15.17;;
10509;SDS011;5303;53.266;10.410;2023-04-08T12:49:11;32.70;;;15.83;;
10509;SDS011;5303;53.266;10.410;2023-04-08T12:51:37;26.57;;;14.60;;
10509;SDS011;5303;53.266;10.410;2023-04-08T12:54:02;26.50;;;15.90;;
10509;SDS011;5303;53.266;10.410;2023-04-08T12:56:28;26.33;;;13.73;;
10509;SDS011;5303;53.266;10.410;2023-04-08T12:58:54;27.27;;;13.63;;
10509;SDS011;5303;53.266;10.410;2023-04-08T13:01:22;26.13;;;15.23;;
10509;SDS011;5303;53.266;10.410;2023-04-08T13:03:48;24.87;;;14.63;;
10509;SDS011;5303;53.266;10.410;2023-04-08T13:06:13;25.70;;;16.57;;
10509;SDS011;5303;53.266;10.410;2023-04-08T13:08:39;22.00;;;14.47;;
10509;SDS011;5303;53.266;10.410;2023-04-08T13:11:06;21.57;;;14.27;;
10509;SDS011;5303;53.266;10.410;2023-04-08T13:13:31;19.37;;;12.90;;
10509;SDS011;5303;53.266;10.410;2023-04-08T13:15:56;22.17;;;13.40;;
10509;SDS011;5303;53.266;10.410;2023-04-08T13:18:22;21.00;;;13.20;;
10509;SDS011;5303;53.266;10.410;2023-04-08T13:20:48;20.80;;;13.63;;
10509;SDS011;5303;53.266;10.410;2023-04-08T13:23:13;18.33;;;12.93;;
10509;SDS011;5303;53.266;10.410;2023-04-08T13:25:39;24.00;;;13.83;;
10509;SDS011;5303;53.266;10.410;2023-04-08T13:28:04;22.37;;;13.77;;
10509;SDS011;5303;53.266;10.410;2023-04-08T13:30:30;21.13;;;13.67;;
10509;SDS011;5303;53.266;10.410;2023-04-08T13:32:55;23.37;;;14.83;;
10509;SDS011;5303;53.266;10.410;2023-04-08T13:35:20;22.73;;;13.27;;
10509;SDS011;5303;53.266;10.410;2023-04-08T13:37:46;20.50;;;13.10;;
10509;SDS011;5303;53.266;10.410;2023-04-08T13:40:11;20.33;;;14.70;;
10509;SDS011;5303;53.266;10.410;2023-04-08T13:42:37;24.37;;;14.57;;
10509;SDS011;5303;53.266;10.410;2023-04-08T13:45:03;20.07;;;13.47;;
10509;SDS011;5303;53.266;10.410;2023-04-08T13:47:28;23.13;;;15.40;;
10509;SDS011;5303;53.266;10.410;2023-04-08T13:49:54;16.13;;;12.23;;
10509;SDS011;5303;53.266;10.410;2023-04-08T13:52:19;27.43;;;17.33;;
10509;SDS011;5303;53.266;10.410;2023-04-08T13:54:44;26.83;;;16.00;;
10509;SDS011;5303;53.266;10.410;2023-04-08T13:57:10;20.57;;;13.83;;
10509;SDS011;5303;53.266;10.410;2023-04-08T13:59:35;19.97;;;12.47;;
10509;SDS011;5303;53.266;10.410;2023-04-08T14:02:01;18.47;;;12.30;;
10509;SDS011;5303;53.266;10.410;2023-04-08T14:04:26;19.77;;;12.33;;
10509;SDS011;5303;53.266;10.410;2023-04-08T14:06:51;17.87;;;12.13;;
10509;SDS011;5303;53.266;10.410;2023-04-08T14:09:17;19.27;;;14.03;;
10509;SDS011;5303;53.266;10.410;2023-04-08T14:11:43;23.07;;;13.50;;
10509;SDS011;5303;53.266;10.410;2023-04-08T14:14:08;19.70;;;13.73;;
10509;SDS011;5303;53.266;10.410;2023-04-08T14:16:33;20.33;;;14.00;;
10509;SDS011;5303;53.266;10.410;2023-04-08T14:18:59;19.50;;;12.47;;
10509;SDS011;5303;53.266;10.410;2023-04-08T14:21:25;21.03;;;12.37;;
10509;SDS011;5303;53.266;10.410;2023-04-08T14:23:51;21.23;;;13.77;;
10509;SDS011;5303;53.266;10.410;2023-04-08T14:26:17;23.53;;;13.80;;
10509;SDS011;5303;53.266;10.410;2023-04-08T14:28:42;21.70;;;13.17;;